Time;durP1;ratioP1;P1;durP2;ratioP2;P2;SDS_P1;SDS_P2;PMS_P1;PMS_P2;Temp;Humidity;BMP_temperature;BMP_pressure;BME280_temperature;BME280_humidity;BME280_pressure;Samples;Min_cycle;Max_cycle;Signal;HPM_P1;HPM_P2
2023/03/18 00:01:10;;;;;;;16.90;6.57;;;9.90;99.90;;;;;;5084811;28;20107;-84
2023/03/18 00:03:37;;;;;;;15.48;6.63;;;10.00;99.90;;;;;;5068665;28;20047;-84
2023/03/18 00:06:10;;;;;;;10.77;6.30;;;10.00;99.90;;;;;;5101729;28;20045;-84
2023/03/18 00:08:38;;;;;;;17.60;7.03;;;10.00;99.90;;;;;;5085151;28;20040;-84
2023/03/18 00:11:06;;;;;;;14.02;6.50;;;10.00;99.90;;;;;;5101110;28;20457;-84
2023/03/18 00:13:33;;;;;;;12.75;6.32;;;10.00;99.90;;;;;;5068505;28;20553;-84
2023/03/18 00:16:01;;;;;;;11.57;6.07;;;10.00;99.90;;;;;;5084774;28;20066;-84
2023/03/18 00:18:30;;;;;;;14.70;6.28;;;10.00;99.90;;;;;;5084950;28;20048;-84
2023/03/18 00:20:58;;;;;;;12.82;6.35;;;10.00;99.90;;;;;;5085089;28;20136;-84
2023/03/18 00:23:27;;;;;;;8.75;5.63;;;10.00;99.90;;;;;;5081938;28;20494;-84
2023/03/18 00:25:55;;;;;;;9.70;5.10;;;10.00;99.90;;;;;;5081067;28;20532;-84
2023/03/18 00:28:23;;;;;;;10.43;4.53;;;10.00;99.90;;;;;;5081284;28;20044;-84
2023/03/18 00:30:50;;;;;;;9.30;4.60;;;10.00;99.90;;;;;;5077010;28;20048;-83
2023/03/18 00:33:18;;;;;;;11.15;5.13;;;10.10;99.90;;;;;;5101187;28;20041;-84
2023/03/18 00:35:46;;;;;;;9.98;5.07;;;10.00;99.90;;;;;;5084816;28;20409;-83
2023/03/18 00:38:19;;;;;;;9.57;4.82;;;10.00;99.90;;;;;;5101695;28;20045;-83
2023/03/18 00:41:00;;;;;;;12.18;5.15;;;10.10;99.90;;;;;;5072399;28;20048;-84
2023/03/18 00:43:31;;;;;;;12.45;4.28;;;10.10;99.90;;;;;;5056939;28;20559;-84
2023/03/18 00:45:58;;;;;;;8.20;4.28;;;10.10;99.90;;;;;;5104694;28;20037;-84
2023/03/18 00:48:25;;;;;;;13.77;3.80;;;10.10;99.90;;;;;;5088573;28;20094;-84
2023/03/18 00:50:52;;;;;;;8.50;4.15;;;10.00;99.90;;;;;;5084765;28;20038;-84
2023/03/18 00:53:20;;;;;;;11.98;3.90;;;10.00;99.90;;;;;;5086337;28;20041;-84
2023/03/18 00:55:46;;;;;;;8.13;4.03;;;10.10;99.90;;;;;;5088307;28;20493;-84
2023/03/18 00:58:13;;;;;;;10.32;3.85;;;10.10;99.90;;;;;;5071226;28;20049;-84
2023/03/18 01:00:40;;;;;;;10.43;3.67;;;10.10;99.90;;;;;;5067729;28;20052;-84
2023/03/18 01:03:07;;;;;;;11.07;3.72;;;10.10;99.90;;;;;;5088170;28;20048;-84
2023/03/18 01:05:34;;;;;;;9.38;4.47;;;10.10;99.90;;;;;;5079867;28;20779;-84
2023/03/18 01:08:01;;;;;;;8.75;4.47;;;10.10;99.90;;;;;;5083974;28;20041;-84
2023/03/18 01:10:29;;;;;;;7.07;4.38;;;10.20;99.90;;;;;;5076126;28;20131;-84
2023/03/18 01:12:56;;;;;;;9.00;4.40;;;10.20;99.90;;;;;;5070938;28;20052;-84
2023/03/18 01:15:24;;;;;;;9.38;4.88;;;10.20;99.90;;;;;;5104534;28;20517;-84
2023/03/18 01:17:53;;;;;;;14.40;4.93;;;10.20;99.90;;;;;;5104303;28;20497;-84
2023/03/18 01:20:20;;;;;;;7.95;4.25;;;10.20;99.90;;;;;;5103997;28;20040;-84
2023/03/18 01:22:47;;;;;;;9.52;4.18;;;10.10;99.90;;;;;;5054793;28;20069;-84
2023/03/18 01:25:15;;;;;;;8.77;4.50;;;10.10;99.90;;;;;;5070804;28;20081;-84
2023/03/18 01:27:42;;;;;;;11.77;4.60;;;10.10;99.90;;;;;;5088250;28;20413;-84
2023/03/18 01:30:10;;;;;;;8.80;4.07;;;10.00;99.90;;;;;;5054246;28;20497;-84
2023/03/18 01:32:37;;;;;;;9.38;4.25;;;10.00;99.90;;;;;;5054354;28;20029;-84
2023/03/18 01:35:04;;;;;;;8.77;4.57;;;10.00;99.90;;;;;;5054171;28;20045;-84
2023/03/18 01:37:32;;;;;;;8.68;4.78;;;10.00;99.90;;;;;;5087103;28;20810;-84
2023/03/18 01:39:59;;;;;;;12.23;4.05;;;10.00;99.90;;;;;;5087486;28;20036;-84
2023/03/18 01:42:26;;;;;;;13.88;4.70;;;9.90;99.90;;;;;;5087247;28;20159;-84
2023/03/18 01:45:18;;;;;;;7.35;4.57;;;9.90;99.90;;;;;;5086985;28;20565;-84
2023/03/18 01:47:45;;;;;;;13.65;4.25;;;9.80;99.90;;;;;;5087263;28;20044;-84
2023/03/18 01:50:14;;;;;;;13.60;4.85;;;9.70;99.90;;;;;;5069593;28;20091;-84
2023/03/18 01:52:43;;;;;;;11.85;4.85;;;9.60;99.90;;;;;;5070378;28;20088;-84
2023/03/18 01:55:19;;;;;;;12.35;5.03;;;9.50;99.90;;;;;;5054103;28;20033;-84
2023/03/18 01:57:47;;;;;;;;;;;9.40;99.90;;;;;;5070202;28;20040;-84
2023/03/18 02:00:15;;;;;;;10.15;5.22;;;9.40;99.90;;;;;;5103017;28;20385;-84
2023/03/18 02:02:44;;;;;;;12.77;5.00;;;9.30;99.90;;;;;;5086598;28;20493;-84
2023/03/18 02:05:14;;;;;;;9.63;5.65;;;9.20;99.90;;;;;;5086874;28;20099;-84
2023/03/18 02:07:42;;;;;;;14.85;6.00;;;9.10;99.90;;;;;;5070575;28;20036;-84
2023/03/18 02:10:13;;;;;;;9.25;5.30;;;9.00;99.90;;;;;;5069750;28;20520;-83
2023/03/18 02:12:43;;;;;;;10.93;5.13;;;8.90;99.90;;;;;;5086291;28;20489;-84
2023/03/18 02:15:18;;;;;;;11.70;5.35;;;8.90;99.90;;;;;;5069834;28;20047;-84
2023/03/18 02:17:50;;;;;;;12.07;5.60;;;8.80;99.90;;;;;;5103128;28;20044;-84
2023/03/18 02:20:23;;;;;;;11.20;5.97;;;8.70;99.90;;;;;;5070100;28;20037;-84
2023/03/18 02:22:57;;;;;;;12.95;6.63;;;8.70;99.90;;;;;;5086145;28;20033;-83
2023/03/18 02:25:50;;;;;;;11.73;6.47;;;8.60;99.90;;;;;;5119832;28;20045;-84
2023/03/18 02:28:22;;;;;;;10.52;6.28;;;8.60;99.90;;;;;;5069358;28;20040;-84
2023/03/18 02:30:56;;;;;;;15.20;7.68;;;8.50;99.90;;;;;;5119745;28;20048;-83
2023/03/18 02:33:28;;;;;;;15.30;7.30;;;8.60;99.90;;;;;;5102749;28;20135;-83
2023/03/18 02:36:04;;;;;;;14.15;8.63;;;8.60;99.90;;;;;;5070373;28;20048;-84
2023/03/18 02:38:32;;;;;;;16.52;8.52;;;8.60;99.90;;;;;;5102607;28;20056;-84
2023/03/18 02:40:58;;;;;;;13.73;7.32;;;8.60;99.90;;;;;;5102916;28;20056;-84
2023/03/18 02:43:26;;;;;;;20.50;9.68;;;8.60;99.90;;;;;;5086017;28;20482;-83
2023/03/18 02:45:56;;;;;;;16.75;10.48;;;8.60;99.90;;;;;;5086279;28;20160;-84
2023/03/18 02:48:28;;;;;;;22.65;12.15;;;8.60;99.90;;;;;;5086005;28;20123;-84
2023/03/18 02:50:56;;;;;;;23.17;11.77;;;8.70;99.90;;;;;;5086007;28;20186;-84
2023/03/18 02:53:23;;;;;;;20.45;11.10;;;8.70;99.90;;;;;;5102186;28;20116;-84
2023/03/18 02:55:50;;;;;;;19.10;11.50;;;8.70;99.90;;;;;;5052726;28;20097;-84
2023/03/18 02:58:16;;;;;;;21.75;13.45;;;8.70;99.90;;;;;;5065364;28;20124;-84
2023/03/18 03:00:43;;;;;;;25.00;11.95;;;8.80;99.90;;;;;;5099142;28;20132;-84
2023/03/18 03:03:10;;;;;;;23.98;12.52;;;8.80;99.90;;;;;;5065334;28;20060;-84
2023/03/18 03:05:37;;;;;;;21.40;13.20;;;8.80;99.90;;;;;;5082408;28;20434;-84
2023/03/18 03:08:05;;;;;;;22.83;12.38;;;8.70;99.90;;;;;;5095262;28;20413;-83
2023/03/18 03:10:32;;;;;;;23.08;14.77;;;8.80;99.90;;;;;;5068581;28;20404;-84
2023/03/18 03:12:59;;;;;;;21.42;13.43;;;8.80;99.90;;;;;;5085848;28;20501;-84
2023/03/18 03:15:25;;;;;;;24.75;14.15;;;8.80;99.90;;;;;;5068309;28;20119;-84
2023/03/18 03:17:53;;;;;;;23.73;14.18;;;8.90;99.90;;;;;;5069386;28;20560;-83
2023/03/18 03:20:20;;;;;;;28.85;15.98;;;9.00;99.90;;;;;;5102172;28;20094;-84
2023/03/18 03:22:47;;;;;;;25.15;13.50;;;8.90;99.90;;;;;;5085338;28;20037;-84
2023/03/18 03:25:14;;;;;;;26.63;15.70;;;8.90;99.90;;;;;;5052573;28;20544;-83
2023/03/18 03:27:41;;;;;;;27.25;16.20;;;8.90;99.90;;;;;;5052697;28;20072;-84
2023/03/18 03:30:10;;;;;;;28.25;15.23;;;9.00;99.90;;;;;;5052464;28;20037;-83
2023/03/18 03:32:38;;;;;;;31.33;16.65;;;9.00;99.90;;;;;;5068660;28;20516;-84
2023/03/18 03:35:07;;;;;;;25.85;14.70;;;9.00;99.90;;;;;;5052661;28;20409;-84
2023/03/18 03:37:34;;;;;;;28.92;17.20;;;9.00;99.90;;;;;;5069182;28;20032;-83
2023/03/18 03:40:01;;;;;;;24.10;15.23;;;9.00;99.90;;;;;;5052760;28;20049;-84
2023/03/18 03:42:28;;;;;;;26.73;13.13;;;9.00;99.90;;;;;;5052037;28;20056;-84
2023/03/18 03:44:55;;;;;;;25.63;14.13;;;9.00;99.90;;;;;;5052404;28;20498;-83
2023/03/18 03:47:21;;;;;;;27.35;16.38;;;9.00;99.90;;;;;;5084868;28;20115;-84
2023/03/18 03:49:48;;;;;;;25.98;15.75;;;9.00;99.90;;;;;;5069130;28;20044;-84
2023/03/18 03:52:17;;;;;;;27.27;16.17;;;9.00;99.90;;;;;;5084783;28;20037;-84
2023/03/18 03:54:43;;;;;;;28.75;14.93;;;9.00;99.90;;;;;;5068763;28;20068;-84
2023/03/18 03:57:11;;;;;;;23.30;13.93;;;8.90;99.90;;;;;;5068683;28;20037;-84
2023/03/18 03:59:37;;;;;;;23.40;15.65;;;8.90;99.90;;;;;;5068359;28;20080;-84
2023/03/18 04:02:04;;;;;;;22.85;13.85;;;8.90;99.90;;;;;;5068970;28;20048;-84
2023/03/18 04:04:31;;;;;;;21.70;12.48;;;8.90;99.90;;;;;;5052422;28;20079;-83
2023/03/18 04:06:58;;;;;;;25.15;13.13;;;8.90;99.90;;;;;;5051898;28;20049;-84
2023/03/18 04:09:25;;;;;;;26.30;14.30;;;8.80;99.90;;;;;;5051741;28;20037;-83
2023/03/18 04:11:51;;;;;;;25.02;15.05;;;8.80;99.90;;;;;;5068598;28;20037;-84
2023/03/18 04:14:19;;;;;;;25.23;12.02;;;8.80;99.90;;;;;;5103900;28;20042;-84
2023/03/18 04:16:45;;;;;;;21.60;11.90;;;8.80;99.90;;;;;;5051992;28;20038;-84
2023/03/18 04:19:12;;;;;;;26.25;13.50;;;8.80;99.90;;;;;;5069011;28;20153;-84
2023/03/18 04:21:39;;;;;;;22.17;12.60;;;8.70;99.90;;;;;;5085659;28;20486;-83
2023/03/18 04:24:06;;;;;;;23.55;14.50;;;8.70;99.90;;;;;;5075648;28;20048;-84
2023/03/18 04:26:32;;;;;;;27.50;13.13;;;8.60;99.90;;;;;;5072424;28;20099;-84
2023/03/18 04:28:59;;;;;;;22.70;14.57;;;8.50;99.90;;;;;;5088752;28;20156;-83
2023/03/18 04:31:26;;;;;;;25.20;14.60;;;8.50;99.90;;;;;;5088404;28;20029;-84
2023/03/18 04:33:52;;;;;;;24.35;15.23;;;8.40;99.90;;;;;;5055320;28;20045;-83
2023/03/18 04:36:19;;;;;;;25.00;14.07;;;8.40;99.90;;;;;;5071778;28;20033;-83
2023/03/18 04:38:46;;;;;;;22.65;13.65;;;8.40;99.90;;;;;;5088379;28;20037;-84
2023/03/18 04:41:12;;;;;;;22.83;15.68;;;8.30;99.90;;;;;;5088802;28;20036;-84
2023/03/18 04:43:39;;;;;;;21.63;12.73;;;8.30;99.90;;;;;;5087837;28;20086;-84
2023/03/18 04:46:06;;;;;;;23.70;12.73;;;8.20;99.90;;;;;;5071678;28;20045;-84
2023/03/18 04:48:32;;;;;;;24.52;13.30;;;8.20;99.90;;;;;;5071442;28;20073;-84
2023/03/18 04:50:59;;;;;;;26.83;13.30;;;8.10;99.90;;;;;;5068240;28;20446;-83
2023/03/18 04:53:26;;;;;;;28.30;15.57;;;8.10;99.90;;;;;;5102776;28;20033;-84
2023/03/18 04:55:53;;;;;;;27.55;16.30;;;8.10;99.90;;;;;;5071269;28;20040;-84
2023/03/18 04:58:19;;;;;;;22.80;13.13;;;8.10;99.90;;;;;;5071487;28;20049;-83
2023/03/18 05:00:46;;;;;;;21.15;13.38;;;8.00;99.90;;;;;;5071836;28;20049;-83
2023/03/18 05:03:13;;;;;;;20.70;11.75;;;8.00;99.90;;;;;;5071784;28;20159;-84
2023/03/18 05:05:40;;;;;;;26.63;15.18;;;8.00;99.90;;;;;;5055114;28;20489;-84
2023/03/18 05:08:06;;;;;;;23.92;16.27;;;8.00;99.90;;;;;;5071610;28;20040;-84
2023/03/18 05:10:34;;;;;;;25.13;13.13;;;8.00;99.90;;;;;;5055530;28;20079;-84
2023/03/18 05:13:00;;;;;;;21.85;12.05;;;8.00;99.90;;;;;;5055152;28;20374;-83
2023/03/18 05:15:27;;;;;;;21.02;11.43;;;8.00;99.90;;;;;;5054573;28;20048;-84
2023/03/18 05:17:54;;;;;;;23.77;12.05;;;8.00;99.90;;;;;;5054104;28;20186;-83
2023/03/18 05:20:21;;;;;;;22.42;11.68;;;8.00;99.90;;;;;;5070848;28;20371;-84
2023/03/18 05:22:48;;;;;;;25.92;12.45;;;8.00;99.90;;;;;;5070624;28;20036;-84
2023/03/18 05:25:15;;;;;;;26.67;16.13;;;8.10;99.90;;;;;;5070561;28;20063;-84
2023/03/18 05:27:41;;;;;;;31.48;15.50;;;8.10;99.90;;;;;;5086676;28;20090;-84
2023/03/18 05:30:09;;;;;;;28.58;16.33;;;8.10;99.90;;;;;;5087137;28;20594;-83
2023/03/18 05:32:37;;;;;;;29.40;16.92;;;8.20;99.90;;;;;;5086625;28;20411;-84
2023/03/18 05:35:04;;;;;;;26.88;13.38;;;8.20;99.90;;;;;;5070601;28;20037;-83
2023/03/18 05:37:31;;;;;;;27.45;15.82;;;8.20;99.90;;;;;;5054122;28;20041;-84
2023/03/18 05:39:58;;;;;;;27.85;17.45;;;8.20;99.90;;;;;;5070085;28;20155;-84
2023/03/18 05:42:24;;;;;;;28.02;15.82;;;8.30;99.90;;;;;;5070774;28;20049;-83
2023/03/18 05:44:51;;;;;;;25.65;15.05;;;8.30;99.90;;;;;;5053272;28;20123;-83
2023/03/18 05:47:18;;;;;;;26.58;15.43;;;8.30;99.90;;;;;;5070102;28;20045;-84
2023/03/18 05:49:45;;;;;;;25.00;16.40;;;8.30;99.90;;;;;;5069497;28;20044;-84
2023/03/18 05:52:12;;;;;;;28.42;16.25;;;8.40;99.90;;;;;;5053963;28;20029;-83
2023/03/18 05:54:38;;;;;;;30.70;17.08;;;8.30;99.90;;;;;;5053735;28;20064;-83
2023/03/18 05:57:06;;;;;;;25.98;16.65;;;8.40;99.90;;;;;;5053865;28;20037;-84
2023/03/18 05:59:32;;;;;;;33.38;17.52;;;8.40;99.90;;;;;;5070317;28;20059;-84
2023/03/18 06:02:00;;;;;;;27.05;17.15;;;8.50;99.90;;;;;;5053665;28;20406;-83
2023/03/18 06:04:27;;;;;;;27.55;16.27;;;8.40;99.90;;;;;;5053663;28;20044;-84
2023/03/18 06:06:54;;;;;;;25.40;15.40;;;8.50;99.90;;;;;;5053648;28;20044;-84
2023/03/18 06:09:21;;;;;;;27.27;16.25;;;8.50;99.90;;;;;;5053602;28;20041;-84
2023/03/18 06:11:48;;;;;;;28.83;17.70;;;8.50;99.90;;;;;;5086388;28;20128;-83
2023/03/18 06:14:14;;;;;;;33.13;16.73;;;8.50;99.90;;;;;;5069868;28;20178;-83
2023/03/18 06:16:42;;;;;;;24.95;16.38;;;8.60;99.90;;;;;;5070122;28;20136;-84
2023/03/18 06:19:12;;;;;;;30.98;16.67;;;8.60;99.90;;;;;;5053416;28;21651;-84
2023/03/18 06:21:39;;;;;;;29.52;15.68;;;8.60;99.90;;;;;;5087153;28;20497;-84
2023/03/18 06:24:06;;;;;;;27.00;17.20;;;8.60;99.90;;;;;;5086485;28;20043;-84
2023/03/18 06:26:34;;;;;;;30.65;16.25;;;8.60;99.90;;;;;;5053541;28;20516;-84
2023/03/18 06:29:00;;;;;;;23.60;15.10;;;8.60;99.90;;;;;;5086314;28;20134;-84
2023/03/18 06:31:27;;;;;;;25.70;15.38;;;8.60;99.90;;;;;;5069849;28;20121;-84
2023/03/18 06:33:54;;;;;;;25.15;14.95;;;8.70;99.90;;;;;;5085970;28;20048;-83
2023/03/18 06:36:21;;;;;;;24.90;15.70;;;8.70;99.90;;;;;;5085867;28;20041;-84
2023/03/18 06:38:48;;;;;;;25.63;15.88;;;8.70;99.90;;;;;;5102645;28;20033;-84
2023/03/18 06:41:15;;;;;;;26.23;16.48;;;8.70;99.90;;;;;;5086107;28;20124;-84
2023/03/18 06:43:42;;;;;;;25.27;14.90;;;8.80;99.90;;;;;;5086022;28;20044;-84
2023/03/18 06:46:09;;;;;;;24.45;14.93;;;8.80;99.90;;;;;;5085943;28;20084;-83
2023/03/18 06:48:39;;;;;;;23.52;14.52;;;8.80;99.90;;;;;;5119271;28;20055;-84
2023/03/18 06:51:06;;;;;;;24.10;15.82;;;8.90;99.90;;;;;;5085945;28;20040;-84
2023/03/18 06:53:35;;;;;;;25.38;14.77;;;8.90;99.90;;;;;;5069264;28;20493;-84
2023/03/18 06:56:03;;;;;;;26.92;15.40;;;9.00;99.90;;;;;;5085973;28;20047;-84
2023/03/18 06:58:30;;;;;;;25.50;16.38;;;9.10;99.90;;;;;;5085665;28;20554;-84
2023/03/18 07:00:57;;;;;;;26.42;16.33;;;9.10;99.90;;;;;;5085840;28;20045;-84
2023/03/18 07:03:25;;;;;;;24.92;15.10;;;9.20;99.90;;;;;;5086278;28;20401;-84
2023/03/18 07:05:53;;;;;;;23.63;15.57;;;9.30;99.90;;;;;;5086138;28;20029;-84
2023/03/18 07:08:19;;;;;;;25.83;15.55;;;9.30;99.90;;;;;;5086090;28;20485;-84
2023/03/18 07:10:46;;;;;;;27.23;17.35;;;9.40;99.90;;;;;;5085501;28;20098;-84
2023/03/18 07:13:14;;;;;;;27.45;16.15;;;9.40;99.90;;;;;;5086001;28;20101;-84
2023/03/18 07:15:41;;;;;;;28.38;15.60;;;9.50;99.90;;;;;;5085906;28;20379;-84
2023/03/18 07:18:09;;;;;;;26.02;15.20;;;9.60;99.90;;;;;;5085612;28;20178;-83
2023/03/18 07:20:36;;;;;;;27.75;14.63;;;9.60;99.90;;;;;;5085957;28;20044;-84
2023/03/18 07:23:03;;;;;;;26.05;15.38;;;9.70;99.90;;;;;;5085465;28;20041;-84
2023/03/18 07:25:31;;;;;;;27.02;15.65;;;9.70;99.90;;;;;;5085880;28;20127;-84
2023/03/18 07:28:02;;;;;;;27.55;14.73;;;9.80;99.90;;;;;;5085670;28;20032;-83
2023/03/18 07:30:29;;;;;;;28.33;15.57;;;9.70;99.90;;;;;;5085693;28;20037;-82
2023/03/18 07:32:56;;;;;;;24.75;15.55;;;9.70;99.90;;;;;;5085350;28;20041;-83
2023/03/18 07:35:23;;;;;;;25.13;14.70;;;9.70;99.90;;;;;;5085394;28;20037;-83
2023/03/18 07:37:50;;;;;;;27.52;15.35;;;9.70;99.90;;;;;;5085386;28;20047;-83
2023/03/18 07:40:16;;;;;;;24.65;16.08;;;9.70;99.90;;;;;;5085341;28;20124;-83
2023/03/18 07:42:43;;;;;;;25.75;15.75;;;9.70;99.90;;;;;;5101990;28;20125;-83
2023/03/18 07:45:10;;;;;;;26.58;15.98;;;9.80;99.90;;;;;;5085869;28;20076;-83
2023/03/18 07:47:37;;;;;;;26.20;16.50;;;9.80;99.90;;;;;;5085592;28;20048;-83
2023/03/18 07:50:05;;;;;;;28.13;16.65;;;9.90;99.90;;;;;;5088024;28;20053;-83
2023/03/18 07:52:31;;;;;;;25.42;16.63;;;10.00;99.90;;;;;;5105595;28;20037;-83
2023/03/18 07:54:58;;;;;;;25.48;17.02;;;10.00;99.90;;;;;;5089043;28;20511;-83
2023/03/18 07:57:25;;;;;;;26.25;17.10;;;10.10;99.90;;;;;;5106004;28;20510;-83
2023/03/18 07:59:52;;;;;;;28.70;16.15;;;10.10;99.90;;;;;;5089153;28;20052;-83
2023/03/18 08:02:20;;;;;;;26.15;15.98;;;10.20;99.90;;;;;;5105302;28;20088;-83
2023/03/18 08:04:47;;;;;;;26.58;16.95;;;10.30;99.90;;;;;;5087645;28;20049;-83
2023/03/18 08:07:13;;;;;;;26.02;17.15;;;10.30;99.90;;;;;;5055567;28;20051;-83
2023/03/18 08:09:40;;;;;;;24.30;16.52;;;10.40;99.90;;;;;;5073037;28;20520;-83
2023/03/18 08:12:07;;;;;;;26.63;16.52;;;10.40;99.90;;;;;;5072555;28;20604;-82
2023/03/18 08:14:34;;;;;;;28.58;15.93;;;10.50;99.90;;;;;;5056109;28;20052;-83
2023/03/18 08:17:02;;;;;;;26.02;15.40;;;10.60;99.90;;;;;;5072305;28;20124;-83
2023/03/18 08:19:29;;;;;;;24.38;15.90;;;10.50;99.90;;;;;;5055993;28;20044;-83
2023/03/18 08:21:56;;;;;;;27.67;16.00;;;10.60;99.90;;;;;;5055827;28;20036;-83
2023/03/18 08:24:23;;;;;;;22.25;14.70;;;10.60;99.90;;;;;;5056289;28;20048;-83
2023/03/18 08:26:50;;;;;;;22.83;13.55;;;10.60;99.90;;;;;;5056163;28;20489;-83
2023/03/18 08:29:17;;;;;;;23.23;14.18;;;10.60;99.90;;;;;;5055812;28;20044;-83
2023/03/18 08:31:44;;;;;;;21.20;14.55;;;10.60;99.90;;;;;;5088933;28;20052;-82
2023/03/18 08:34:11;;;;;;;21.90;14.25;;;10.50;99.90;;;;;;5071962;28;20120;-83
2023/03/18 08:36:40;;;;;;;20.08;13.70;;;10.60;99.90;;;;;;5105676;28;20133;-83
2023/03/18 08:39:08;;;;;;;23.08;13.52;;;10.60;99.90;;;;;;5105038;28;20401;-83
2023/03/18 08:41:35;;;;;;;20.70;13.27;;;10.70;99.90;;;;;;5088940;28;20127;-83
2023/03/18 08:44:05;;;;;;;20.23;13.10;;;10.70;99.90;;;;;;5071764;28;21509;-83
2023/03/18 08:46:31;;;;;;;19.23;13.00;;;10.80;99.90;;;;;;5088879;28;20033;-83
2023/03/18 08:48:58;;;;;;;21.05;13.82;;;10.80;99.90;;;;;;5088460;28;20110;-83
2023/03/18 08:51:25;;;;;;;19.98;12.73;;;10.80;99.90;;;;;;5105190;28;20037;-83
2023/03/18 08:53:53;;;;;;;26.50;14.23;;;10.80;99.90;;;;;;5088629;28;20052;-83
2023/03/18 08:56:19;;;;;;;20.02;14.10;;;10.80;99.90;;;;;;5104733;28;20420;-83
2023/03/18 08:58:47;;;;;;;21.67;13.35;;;10.90;99.90;;;;;;5087654;28;20106;-83
2023/03/18 09:01:14;;;;;;;22.08;13.52;;;11.00;99.90;;;;;;5086497;28;20049;-83
2023/03/18 09:03:41;;;;;;;22.15;13.32;;;11.10;99.90;;;;;;5085480;28;20044;-83
2023/03/18 09:06:08;;;;;;;21.83;13.75;;;11.20;99.90;;;;;;5052516;28;20033;-83
2023/03/18 09:08:35;;;;;;;24.63;13.57;;;11.20;99.90;;;;;;5085494;28;20040;-84
2023/03/18 09:11:02;;;;;;;19.80;12.95;;;11.30;99.90;;;;;;5053392;28;20044;-84
2023/03/18 09:13:28;;;;;;;22.13;13.27;;;11.50;99.90;;;;;;5069358;28;20123;-84
2023/03/18 09:15:55;;;;;;;22.85;13.77;;;11.60;99.90;;;;;;5086614;28;20558;-84
2023/03/18 09:18:23;;;;;;;20.15;13.45;;;11.60;99.90;;;;;;5052696;28;20037;-84
2023/03/18 09:20:50;;;;;;;25.17;14.38;;;11.60;99.90;;;;;;5053708;28;20080;-84
2023/03/18 09:23:17;;;;;;;24.65;14.80;;;11.70;99.90;;;;;;5053097;28;20528;-84
2023/03/18 09:25:50;;;;;;;24.15;14.02;;;11.70;99.90;;;;;;5103262;28;20036;-84
2023/03/18 09:28:17;;;;;;;23.33;14.32;;;11.70;99.90;;;;;;5069848;28;20045;-84
2023/03/18 09:30:44;;;;;;;22.92;14.43;;;11.70;99.90;;;;;;5086223;28;20033;-83
2023/03/18 09:33:11;;;;;;;27.55;14.95;;;11.80;99.90;;;;;;5065758;28;20120;-84
2023/03/18 09:35:38;;;;;;;24.80;14.70;;;11.90;99.90;;;;;;5049663;28;20038;-84
2023/03/18 09:38:06;;;;;;;23.58;15.18;;;12.00;99.90;;;;;;5066018;28;20124;-83
2023/03/18 09:41:02;;;;;;;24.80;15.30;;;12.20;99.90;;;;;;5049163;28;20040;-84
2023/03/18 09:43:51;;;;;;;26.65;14.60;;;12.30;99.90;;;;;;5090500;28;20033;-83
2023/03/18 09:46:36;;;;;;;22.00;14.05;;;12.30;99.90;;;;;;5064885;28;20043;-84
2023/03/18 09:49:22;;;;;;;25.20;15.70;;;12.40;99.90;;;;;;5069408;28;20037;-85
2023/03/18 09:52:33;;;;;;;23.60;15.48;;;12.40;99.90;;;;;;5085694;28;20033;-84
2023/03/18 09:55:20;;;;;;;25.30;15.95;;;12.40;99.90;;;;;;5078691;28;20049;-84
2023/03/18 09:57:50;;;;;;;22.30;15.25;;;12.50;99.90;;;;;;5102761;28;20059;-84
2023/03/18 10:00:29;;;;;;;24.05;15.32;;;12.60;99.90;;;;;;5029868;28;1115595;-84
2023/03/18 10:03:09;;;;;;;25.83;15.50;;;12.60;99.90;;;;;;5069344;28;20501;-83
2023/03/18 10:05:47;;;;;;;27.80;16.23;;;12.70;99.90;;;;;;5086501;28;20036;-83
2023/03/18 10:08:42;;;;;;;24.10;15.48;;;12.80;99.90;;;;;;5069824;28;20036;-84
2023/03/18 10:11:31;;;;;;;25.98;16.17;;;12.90;99.90;;;;;;5068539;28;20041;-84
2023/03/18 10:14:36;;;;;;;27.80;15.27;;;13.00;99.90;;;;;;5102847;28;20520;-85
2023/03/18 10:17:15;;;;;;;25.00;14.93;;;13.30;99.90;;;;;;5093035;28;20397;-84
2023/03/18 10:19:50;;;;;;;20.02;14.05;;;13.50;99.90;;;;;;5069326;28;20040;-84
2023/03/18 10:22:27;;;;;;;23.42;14.73;;;13.50;99.90;;;;;;5083054;28;20045;-84
2023/03/18 10:25:15;;;;;;;23.95;14.80;;;13.50;99.90;;;;;;5085663;28;20565;-84
2023/03/18 10:28:03;;;;;;;25.00;15.00;;;13.50;99.90;;;;;;5069875;28;20488;-84
2023/03/18 10:30:56;;;;;;;23.38;15.82;;;13.50;99.90;;;;;;5068694;28;20098;-84
2023/03/18 10:34:00;;;;;;;23.23;15.40;;;13.40;99.90;;;;;;5068552;28;20055;-84
2023/03/18 10:36:58;;;;;;;27.33;15.73;;;13.40;99.90;;;;;;5075643;28;20505;-84
2023/03/18 10:39:26;;;;;;;23.80;14.88;;;13.40;99.90;;;;;;5098996;28;20110;-84
2023/03/18 10:41:57;;;;;;;27.38;16.38;;;13.50;99.90;;;;;;5052682;28;20048;-83
2023/03/18 10:44:34;;;;;;;24.80;15.38;;;13.50;99.90;;;;;;5101827;28;20033;-83
2023/03/18 10:47:12;;;;;;;22.95;15.65;;;13.60;99.90;;;;;;5069304;28;20068;-83
2023/03/18 10:49:45;;;;;;;25.45;16.08;;;13.60;99.90;;;;;;5068456;28;20033;-84
2023/03/18 10:52:32;;;;;;;22.00;15.02;;;13.70;99.90;;;;;;5069069;28;20412;-84
2023/03/18 10:54:59;;;;;;;26.02;16.38;;;13.80;99.90;;;;;;5101859;28;20128;-84
2023/03/18 10:57:25;;;;;;;23.13;16.17;;;13.70;99.90;;;;;;5101593;28;20120;-84
2023/03/18 10:59:52;;;;;;;22.75;16.27;;;13.70;99.90;;;;;;5052293;28;20049;-84
2023/03/18 11:02:28;;;;;;;25.80;16.65;;;13.60;99.90;;;;;;5068290;28;20045;-84
2023/03/18 11:05:14;;;;;;;27.20;16.92;;;13.60;99.90;;;;;;5085344;28;20044;-84
2023/03/18 11:08:02;;;;;;;24.27;16.60;;;13.50;99.90;;;;;;5102762;28;20044;-84
2023/03/18 11:10:34;;;;;;;28.35;16.90;;;13.60;99.90;;;;;;5048523;28;20045;-84
2023/03/18 11:13:05;;;;;;;24.08;16.90;;;13.60;99.90;;;;;;5059319;28;20053;-84
2023/03/18 11:15:48;;;;;;;24.55;17.40;;;13.70;99.90;;;;;;5052633;28;20083;-84
2023/03/18 11:18:20;;;;;;;25.20;17.42;;;13.80;99.90;;;;;;5101607;28;20037;-84
2023/03/18 11:20:59;;;;;;;24.50;16.77;;;13.90;99.90;;;;;;5068841;28;20425;-84
2023/03/18 11:23:47;;;;;;;25.98;17.08;;;14.00;99.90;;;;;;5068000;28;20059;-84
2023/03/18 11:26:23;;;;;;;24.05;15.23;;;14.00;99.90;;;;;;5084543;28;20080;-84
2023/03/18 11:29:17;;;;;;;25.08;15.98;;;14.10;99.90;;;;;;5067940;28;20055;-84
2023/03/18 11:31:57;;;;;;;18.88;12.52;;;14.10;99.90;;;;;;5101968;28;20049;-83
2023/03/18 11:34:25;;;;;;;22.30;13.93;;;14.10;99.90;;;;;;5069392;28;20036;-83
2023/03/18 11:37:04;;;;;;;19.38;12.95;;;14.10;99.90;;;;;;5068283;28;20092;-83
2023/03/18 11:39:36;;;;;;;23.30;13.50;;;14.20;99.90;;;;;;5051748;28;20060;-83
2023/03/18 11:42:20;;;;;;;19.88;12.52;;;14.20;99.90;;;;;;5068594;28;20068;-83
2023/03/18 11:44:53;;;;;;;17.88;10.55;;;14.30;99.90;;;;;;5084619;28;20646;-83
2023/03/18 11:47:27;;;;;;;17.27;9.50;;;14.40;99.90;;;;;;5068676;28;20045;-83
2023/03/18 11:49:54;;;;;;;15.50;9.55;;;14.40;99.90;;;;;;5068398;28;20498;-83
2023/03/18 11:52:26;;;;;;;18.25;9.07;;;14.50;99.90;;;;;;5068454;28;20037;-83
2023/03/18 11:55:15;;;;;;;14.18;8.55;;;14.60;99.90;;;;;;5068205;28;20498;-83
2023/03/18 11:57:54;;;;;;;17.00;9.50;;;14.50;99.90;;;;;;5101755;28;20045;-83
2023/03/18 12:00:36;;;;;;;16.73;9.63;;;14.40;99.90;;;;;;5101387;28;20064;-84
2023/03/18 12:03:29;;;;;;;14.07;9.18;;;14.40;99.90;;;;;;5100889;28;20044;-83
2023/03/18 12:06:22;;;;;;;16.17;9.55;;;14.40;99.90;;;;;;5067985;28;20041;-83
2023/03/18 12:08:55;;;;;;;13.43;8.73;;;14.50;99.90;;;;;;5067876;28;20114;-83
2023/03/18 12:11:49;;;;;;;13.05;8.25;;;14.60;99.90;;;;;;5084357;28;20127;-84
2023/03/18 12:14:29;;;;;;;14.75;7.97;;;14.70;99.90;;;;;;5084465;28;20075;-84
2023/03/18 12:17:20;;;;;;;13.15;8.38;;;14.80;99.90;;;;;;5067621;28;20047;-83
2023/03/18 12:19:59;;;;;;;13.00;7.88;;;14.80;99.90;;;;;;5068254;28;20087;-84
2023/03/18 12:22:38;;;;;;;13.48;7.90;;;14.70;99.90;;;;;;5067713;28;20124;-84
2023/03/18 12:25:13;;;;;;;13.40;8.70;;;14.70;99.90;;;;;;5100832;28;20080;-83
2023/03/18 12:27:46;;;;;;;12.88;8.38;;;14.60;99.90;;;;;;5084039;28;20056;-83
2023/03/18 12:30:18;;;;;;;13.07;8.57;;;14.70;99.90;;;;;;5068708;28;20045;-83
2023/03/18 12:33:09;;;;;;;13.70;8.57;;;14.90;99.90;;;;;;5067302;28;20041;-83
2023/03/18 12:35:59;;;;;;;12.98;8.68;;;14.90;99.90;;;;;;5102844;28;20493;-84
2023/03/18 12:38:41;;;;;;;14.60;8.18;;;14.90;99.90;;;;;;5104561;28;20481;-84
2023/03/18 12:41:28;;;;;;;13.32;8.05;;;15.00;99.90;;;;;;5071869;28;20052;-83
2023/03/18 12:44:13;;;;;;;14.00;8.43;;;15.00;99.90;;;;;;5070342;28;20059;-84
2023/03/18 12:46:40;;;;;;;9.63;7.18;;;15.00;99.90;;;;;;5104639;28;20824;-83
2023/03/18 12:49:21;;;;;;;11.73;7.80;;;15.30;99.90;;;;;;5071848;28;20060;-83
2023/03/18 12:52:06;;;;;;;11.73;6.68;;;15.30;99.90;;;;;;5104621;28;20040;-84
2023/03/18 12:54:42;;;;;;;11.10;6.20;;;15.40;99.90;;;;;;5104539;28;20037;-84